Time,TemperatureF,DewpointF,PressureIn,WindDirection,WindDirectionDegrees,WindSpeedMPH,WindSpeedGustMPH,Humidity,HourlyPrecipIn,Conditions,Clouds,dailyrainin,SoftwareType,DateUTC
2013-04-24 00:02:00,42.0,41.0,-100.00,NW,325,8.0,12.0,97,-99.99,,,-99.99,,2013-04-24 05:02:00,
2013-04-24 00:12:00,41.0,40.0,-100.00,NW,310,11.0,12.0,97,-99.99,,,-99.99,,2013-04-24 05:12:00,
2013-04-24 00:22:00,41.0,40.0,-100.00,NW,310,11.0,12.0,97,-99.99,,,-99.99,,2013-04-24 05:22:00,
2013-04-24 00:42:00,41.0,40.0,-100.00,NW,315,11.0,14.0,97,-99.99,,,-99.99,,2013-04-24 05:42:00,
2013-04-24 00:52:00,41.0,40.0,-100.00,NW,315,10.0,12.0,97,-99.99,,,-99.99,,2013-04-24 05:52:00,
2013-04-24 01:02:00,41.0,40.0,-100.00,NW,315,10.0,12.0,97,-99.99,,,-99.99,,2013-04-24 06:02:00,
2013-04-24 01:12:00,41.0,40.0,-100.00,NW,315,6.0,10.0,97,-99.99,,,-99.99,,2013-04-24 06:12:00,
2013-04-24 01:21:00,40.0,40.0,-100.00,WNW,290,6.0,10.0,97,-99.99,,,-99.99,,2013-04-24 06:21:00,
2013-04-24 01:32:00,40.0,40.0,-100.00,WNW,290,6.0,10.0,97,-99.99,,,-99.99,,2013-04-24 06:32:00,
2013-04-24 01:42:00,41.0,40.0,-100.00,NW,310,9.0,12.0,97,-99.99,,,-99.99,,2013-04-24 06:42:00,
2013-04-24 01:52:00,41.0,40.0,-100.00,NW,325,9.0,10.0,97,-99.99,,,-99.99,,2013-04-24 06:52:00,
2013-04-24 02:02:00,41.0,40.0,-100.00,NW,325,9.0,10.0,97,-99.99,,,-99.99,,2013-04-24 07:02:00,
2013-04-24 02:11:00,41.0,40.0,-100.00,NNW,330,10.0,12.0,97,-99.99,,,-99.99,,2013-04-24 07:11:00,
2013-04-24 02:22:00,40.0,40.0,-100.00,NW,315,8.0,14.0,97,-99.99,,,-99.99,,2013-04-24 07:22:00,
2013-04-24 02:32:00,40.0,40.0,-100.00,NW,315,8.0,14.0,97,-99.99,,,-99.99,,2013-04-24 07:32:00,
2013-04-24 02:42:00,40.0,39.0,-100.00,North,0,10.0,14.0,97,-99.99,,,-99.99,,2013-04-24 07:42:00,
2013-04-24 02:52:00,40.0,39.0,-100.00,NW,325,12.0,14.0,97,-99.99,,,-99.99,,2013-04-24 07:52:00,
2013-04-24 03:02:00,40.0,39.0,-100.00,NW,325,12.0,14.0,97,-99.99,,,-99.99,,2013-04-24 08:02:00,
2013-04-24 03:12:00,40.0,39.0,-100.00,NW,305,6.0,10.0,97,-99.99,,,-99.99,,2013-04-24 08:12:00,
2013-04-24 03:21:00,40.0,39.0,-100.00,NW,310,10.0,12.0,97,-99.99,,,-99.99,,2013-04-24 08:21:00,
2013-04-24 03:33:00,40.0,39.0,-100.00,NW,310,10.0,12.0,97,-99.99,,,-99.99,,2013-04-24 08:33:00,
2013-04-24 03:42:00,40.0,39.0,-100.00,NNW,345,6.0,9.0,97,-99.99,,,-99.99,,2013-04-24 08:42:00,
2013-04-24 03:52:00,40.0,39.0,-100.00,NW,325,6.0,10.0,97,-99.99,,,-99.99,,2013-04-24 08:52:00,
2013-04-24 04:02:00,40.0,39.0,-100.00,NW,325,6.0,10.0,97,-99.99,,,-99.99,,2013-04-24 09:02:00,
2013-04-24 04:11:00,40.0,39.0,-100.00,NNW,335,6.0,10.0,97,-99.99,,,-99.99,,2013-04-24 09:11:00,
2013-04-24 04:21:00,40.0,39.0,-100.00,NW,325,6.0,10.0,97,-99.99,,,-99.99,,2013-04-24 09:21:00,
2013-04-24 04:33:00,40.0,39.0,-100.00,NW,325,6.0,10.0,97,-99.99,,,-99.99,,2013-04-24 09:33:00,
2013-04-24 04:42:00,40.0,39.0,-100.00,WNW,285,3.0,6.0,97,-99.99,,,-99.99,,2013-04-24 09:42:00,
2013-04-24 04:53:00,40.0,39.0,-100.00,NNW,330,4.0,8.0,97,-99.99,,,-99.99,,2013-04-24 09:53:00,
2013-04-24 05:02:00,40.0,39.0,-100.00,NNW,330,4.0,8.0,97,-99.99,,,-99.99,,2013-04-24 10:02:00,
2013-04-24 05:12:00,40.0,39.0,-100.00,NW,310,9.0,10.0,97,-99.99,,,-99.99,,2013-04-24 10:12:00,
2013-04-24 05:22:00,40.0,39.0,-100.00,WNW,300,9.0,12.0,97,-99.99,,,-99.99,,2013-04-24 10:22:00,
2013-04-24 05:32:00,40.0,39.0,-100.00,WNW,300,9.0,12.0,97,-99.99,,,-99.99,,2013-04-24 10:32:00,
2013-04-24 05:42:00,40.0,39.0,-100.00,WNW,300,9.0,12.0,97,-99.99,,,-99.99,,2013-04-24 10:42:00,
2013-04-24 05:53:00,40.0,39.0,-100.00,NW,320,4.0,9.0,95,-99.99,,,-99.99,,2013-04-24 10:53:00,
2013-04-24 06:02:00,40.0,39.0,-100.00,NW,320,4.0,9.0,95,-99.99,,,-99.99,,2013-04-24 11:02:00,
2013-04-24 06:11:00,40.0,38.0,-100.00,NW,320,9.0,16.0,94,-99.99,,,-99.99,,2013-04-24 11:11:00,
2013-04-24 06:21:00,40.0,38.0,-100.00,NW,320,6.0,10.0,93,-99.99,,,-99.99,,2013-04-24 11:21:00,
2013-04-24 06:32:00,40.0,38.0,-100.00,NW,320,6.0,10.0,93,-99.99,,,-99.99,,2013-04-24 11:32:00,
2013-04-24 06:42:00,40.0,38.0,-100.00,NNW,345,9.0,16.0,92,-99.99,,,-99.99,,2013-04-24 11:42:00,
2013-04-24 06:52:00,40.0,38.0,-100.00,NW,325,10.0,14.0,91,-99.99,,,-99.99,,2013-04-24 11:52:00,
2013-04-24 07:02:00,40.0,38.0,-100.00,NW,325,10.0,14.0,91,-99.99,,,-99.99,,2013-04-24 12:02:00,
2013-04-24 07:11:00,40.0,38.0,-100.00,NNW,340,11.0,16.0,91,-99.99,,,-99.99,,2013-04-24 12:11:00,
2013-04-24 07:22:00,40.0,38.0,-100.00,NNW,335,10.0,14.0,91,-99.99,,,-99.99,,2013-04-24 12:22:00,
2013-04-24 07:32:00,40.0,38.0,-100.00,NNW,335,10.0,14.0,91,-99.99,,,-99.99,,2013-04-24 12:32:00,
2013-04-24 07:42:00,40.0,38.0,-100.00,NNW,330,3.0,9.0,91,-99.99,,,-99.99,,2013-04-24 12:42:00,
2013-04-24 07:52:00,40.0,38.0,-100.00,NW,305,6.0,10.0,90,-99.99,,,-99.99,,2013-04-24 12:52:00,
2013-04-24 08:01:00,40.0,38.0,-100.00,NW,305,6.0,10.0,90,-99.99,,,-99.99,,2013-04-24 13:01:00,
2013-04-24 08:12:00,40.0,37.0,-100.00,NW,305,12.0,16.0,90,-99.99,,,-99.99,,2013-04-24 13:12:00,
2013-04-24 08:22:00,40.0,37.0,-100.00,NW,305,9.0,12.0,90,-99.99,,,-99.99,,2013-04-24 13:22:00,
2013-04-24 08:32:00,40.0,37.0,-100.00,NW,305,9.0,12.0,90,-99.99,,,-99.99,,2013-04-24 13:32:00,
2013-04-24 08:41:00,40.0,37.0,-100.00,NW,305,9.0,12.0,90,-99.99,,,-99.99,,2013-04-24 13:41:00,
2013-04-24 09:11:00,39.0,36.0,-100.00,WNW,290,14.0,21.0,92,-99.99,,,-99.99,,2013-04-24 14:11:00,
2013-04-24 09:21:00,38.0,36.0,-100.00,WNW,295,9.0,11.0,92,-99.99,,,-99.99,,2013-04-24 14:21:00,
2013-04-24 09:32:00,38.0,36.0,-100.00,WNW,295,9.0,11.0,92,-99.99,,,-99.99,,2013-04-24 14:32:00,
2013-04-24 09:41:00,38.0,36.0,-100.00,NW,315,6.0,9.0,92,-99.99,,,-99.99,,2013-04-24 14:41:00,
2013-04-24 09:52:00,39.0,37.0,-100.00,WNW,300,10.0,14.0,92,-99.99,,,-99.99,,2013-04-24 14:52:00,
2013-04-24 10:01:00,39.0,37.0,-100.00,WNW,300,10.0,14.0,92,-99.99,,,-99.99,,2013-04-24 15:01:00,
2013-04-24 10:11:00,39.0,37.0,-100.00,WNW,300,10.0,14.0,92,-99.99,,,-99.99,,2013-04-24 15:11:00,
2013-04-24 10:22:00,39.0,37.0,-100.00,WNW,290,10.0,16.0,92,-99.99,,,-99.99,,2013-04-24 15:22:00,
2013-04-24 10:33:00,39.0,37.0,-100.00,WNW,290,10.0,16.0,92,-99.99,,,-99.99,,2013-04-24 15:33:00,
2013-04-24 10:43:00,39.0,37.0,-100.00,NW,305,10.0,12.0,91,-99.99,,,-99.99,,2013-04-24 15:43:00,
2013-04-24 10:53:00,39.0,36.0,-100.00,NW,305,14.0,21.0,89,-99.99,,,-99.99,,2013-04-24 15:53:00,
2013-04-24 11:03:00,39.0,36.0,-100.00,NW,305,14.0,21.0,89,-99.99,,,-99.99,,2013-04-24 16:03:00,
2013-04-24 11:12:00,39.0,36.0,-100.00,WNW,290,14.0,18.0,87,-99.99,,,-99.99,,2013-04-24 16:12:00,
2013-04-24 11:23:00,40.0,35.0,-100.00,WNW,300,14.0,18.0,84,-99.99,,,-99.99,,2013-04-24 16:23:00,
2013-04-24 11:32:00,40.0,35.0,-100.00,WNW,300,14.0,18.0,84,-99.99,,,-99.99,,2013-04-24 16:32:00,
2013-04-24 11:42:00,41.0,35.0,-100.00,WNW,300,10.0,14.0,81,-99.99,,,-99.99,,2013-04-24 16:42:00,
2013-04-24 11:53:00,41.0,34.0,-100.00,WNW,295,9.0,12.0,77,-99.99,,,-99.99,,2013-04-24 16:53:00,
2013-04-24 12:02:00,41.0,34.0,-100.00,WNW,295,9.0,12.0,77,-99.99,,,-99.99,,2013-04-24 17:02:00,
2013-04-24 12:12:00,42.0,35.0,-100.00,WNW,295,9.0,12.0,74,-99.99,,,-99.99,,2013-04-24 17:12:00,
2013-04-24 12:22:00,43.0,33.0,-100.00,West,270,6.0,9.0,67,-99.99,,,-99.99,,2013-04-24 17:22:00,
2013-04-24 12:32:00,43.0,33.0,-100.00,West,270,6.0,9.0,67,-99.99,,,-99.99,,2013-04-24 17:32:00,
2013-04-24 12:42:00,43.0,32.0,-100.00,WNW,300,9.0,14.0,67,-99.99,,,-99.99,,2013-04-24 17:42:00,
2013-04-24 12:52:00,45.0,33.0,-100.00,NW,325,12.0,18.0,63,-99.99,,,-99.99,,2013-04-24 17:52:00,
2013-04-24 13:02:00,45.0,33.0,-100.00,NW,325,12.0,18.0,63,-99.99,,,-99.99,,2013-04-24 18:02:00,
2013-04-24 13:12:00,44.0,31.0,-100.00,NW,305,10.0,18.0,60,-99.99,,,-99.99,,2013-04-24 18:12:00,
2013-04-24 13:22:00,45.0,31.0,-100.00,NW,320,9.0,10.0,59,-99.99,,,-99.99,,2013-04-24 18:22:00,
2013-04-24 13:33:00,45.0,31.0,-100.00,NW,320,9.0,10.0,59,-99.99,,,-99.99,,2013-04-24 18:33:00,
2013-04-24 13:42:00,46.0,31.0,-100.00,NNW,335,4.0,6.0,56,-99.99,,,-99.99,,2013-04-24 18:42:00,
2013-04-24 13:52:00,46.0,31.0,-100.00,NW,315,11.0,12.0,54,-99.99,,,-99.99,,2013-04-24 18:52:00,
2013-04-24 14:02:00,46.0,31.0,-100.00,NW,315,11.0,12.0,54,-99.99,,,-99.99,,2013-04-24 19:02:00,
2013-04-24 14:11:00,47.0,30.0,-100.00,NW,310,14.0,18.0,52,-99.99,,,-99.99,,2013-04-24 19:11:00,
2013-04-24 14:22:00,47.0,28.0,-100.00,NW,325,6.0,9.0,48,-99.99,,,-99.99,,2013-04-24 19:22:00,
2013-04-24 14:32:00,47.0,28.0,-100.00,NW,325,6.0,9.0,48,-99.99,,,-99.99,,2013-04-24 19:32:00,
2013-04-24 14:42:00,47.0,28.0,-100.00,WNW,300,9.0,10.0,48,-99.99,,,-99.99,,2013-04-24 19:42:00,
2013-04-24 14:52:00,47.0,27.0,-100.00,NW,320,6.0,10.0,46,-99.99,,,-99.99,,2013-04-24 19:52:00,
2013-04-24 15:02:00,47.0,27.0,-100.00,NW,320,6.0,10.0,46,-99.99,,,-99.99,,2013-04-24 20:02:00,
2013-04-24 15:11:00,48.0,28.0,-100.00,NW,310,6.0,9.0,45,-99.99,,,-99.99,,2013-04-24 20:11:00,
2013-04-24 15:22:00,48.0,28.0,-100.00,NW,325,8.0,10.0,45,-99.99,,,-99.99,,2013-04-24 20:22:00,
2013-04-24 15:32:00,48.0,28.0,-100.00,NW,325,8.0,10.0,45,-99.99,,,-99.99,,2013-04-24 20:32:00,
2013-04-24 15:42:00,50.0,28.0,-100.00,WSW,255,6.0,10.0,43,-99.99,,,-99.99,,2013-04-24 20:42:00,
2013-04-24 15:52:00,49.0,27.0,-100.00,WSW,255,6.0,9.0,42,-99.99,,,-99.99,,2013-04-24 20:52:00,
2013-04-24 16:02:00,49.0,27.0,-100.00,WSW,255,6.0,9.0,42,-99.99,,,-99.99,,2013-04-24 21:02:00,
2013-04-24 16:11:00,50.0,27.0,-100.00,West,265,6.0,9.0,41,-99.99,,,-99.99,,2013-04-24 21:11:00,
2013-04-24 16:21:00,51.0,28.0,-100.00,NW,320,2.0,3.0,40,-99.99,,,-99.99,,2013-04-24 21:21:00,
2013-04-24 16:33:00,51.0,28.0,-100.00,NW,320,2.0,3.0,40,-99.99,,,-99.99,,2013-04-24 21:33:00,
2013-04-24 16:42:00,52.0,27.0,-100.00,West,270,6.0,12.0,39,-99.99,,,-99.99,,2013-04-24 21:42:00,
2013-04-24 16:52:00,50.0,27.0,-100.00,West,280,4.0,6.0,40,-99.99,,,-99.99,,2013-04-24 21:52:00,
2013-04-24 17:03:00,50.0,27.0,-100.00,West,280,4.0,6.0,40,-99.99,,,-99.99,,2013-04-24 22:03:00,
2013-04-24 17:12:00,51.0,27.0,-100.00,West,275,10.0,14.0,40,-99.99,,,-99.99,,2013-04-24 22:12:00,
2013-04-24 17:22:00,52.0,28.0,-100.00,West,265,10.0,16.0,39,-99.99,,,-99.99,,2013-04-24 22:22:00,
2013-04-24 17:33:00,52.0,28.0,-100.00,West,265,10.0,16.0,39,-99.99,,,-99.99,,2013-04-24 22:33:00,
2013-04-24 17:42:00,51.0,26.0,-100.00,West,270,6.0,9.0,38,-99.99,,,-99.99,,2013-04-24 22:42:00,
2013-04-24 17:52:00,51.0,26.0,-100.00,West,275,4.0,6.0,37,-99.99,,,-99.99,,2013-04-24 22:52:00,
2013-04-24 18:02:00,51.0,26.0,-100.00,West,275,4.0,6.0,37,-99.99,,,-99.99,,2013-04-24 23:02:00,
2013-04-24 18:12:00,51.0,27.0,-100.00,SW,215,6.0,8.0,38,-99.99,,,-99.99,,2013-04-24 23:12:00,
2013-04-24 18:21:00,51.0,27.0,-100.00,SW,235,2.0,3.0,38,-99.99,,,-99.99,,2013-04-24 23:21:00,
2013-04-24 18:32:00,51.0,27.0,-100.00,SW,235,2.0,3.0,38,-99.99,,,-99.99,,2013-04-24 23:32:00,
2013-04-24 18:42:00,51.0,26.0,-100.00,SW,230,4.0,9.0,37,-99.99,,,-99.99,,2013-04-24 23:42:00,
2013-04-24 18:52:00,51.0,27.0,-100.00,SW,225,4.0,9.0,40,-99.99,,,-99.99,,2013-04-24 23:52:00,
2013-04-24 19:02:00,51.0,27.0,-100.00,SW,225,4.0,9.0,40,-99.99,,,-99.99,,2013-04-25 00:02:00,
2013-04-24 19:12:00,51.0,27.0,-100.00,SW,225,6.0,10.0,40,-99.99,,,-99.99,,2013-04-25 00:12:00,
2013-04-24 19:22:00,50.0,27.0,-100.00,West,275,2.0,3.0,40,-99.99,,,-99.99,,2013-04-25 00:22:00,
2013-04-24 19:32:00,50.0,27.0,-100.00,West,275,2.0,3.0,40,-99.99,,,-99.99,,2013-04-25 00:32:00,
2013-04-24 19:42:00,50.0,27.0,-100.00,SW,225,4.0,9.0,41,-99.99,,,-99.99,,2013-04-25 00:42:00,
2013-04-24 19:52:00,49.0,27.0,-100.00,WSW,255,3.0,6.0,42,-99.99,,,-99.99,,2013-04-25 00:52:00,
2013-04-24 20:01:00,49.0,27.0,-100.00,WSW,255,3.0,6.0,42,-99.99,,,-99.99,,2013-04-25 01:01:00,
2013-04-24 20:11:00,48.0,27.0,-100.00,SW,235,2.0,3.0,43,-99.99,,,-99.99,,2013-04-25 01:11:00,
2013-04-24 20:23:00,48.0,27.0,-100.00,SW,225,3.0,4.0,45,-99.99,,,-99.99,,2013-04-25 01:23:00,
2013-04-24 20:32:00,48.0,27.0,-100.00,SW,225,3.0,4.0,45,-99.99,,,-99.99,,2013-04-25 01:32:00,
2013-04-24 20:42:00,47.0,28.0,-100.00,SW,230,3.0,4.0,47,-99.99,,,-99.99,,2013-04-25 01:42:00,
2013-04-24 20:52:00,47.0,28.0,-100.00,South,190,3.0,4.0,49,-99.99,,,-99.99,,2013-04-25 01:52:00,
2013-04-24 21:02:00,47.0,28.0,-100.00,South,190,3.0,4.0,49,-99.99,,,-99.99,,2013-04-25 02:02:00,
2013-04-24 21:11:00,46.0,30.0,-100.00,SSW,210,1.0,2.0,53,-99.99,,,-99.99,,2013-04-25 02:11:00,
2013-04-24 21:22:00,45.0,31.0,-100.00,SSW,195,1.0,1.0,56,-99.99,,,-99.99,,2013-04-25 02:22:00,
2013-04-24 21:32:00,45.0,31.0,-100.00,SSW,195,1.0,1.0,56,-99.99,,,-99.99,,2013-04-25 02:32:00,
2013-04-24 21:42:00,45.0,31.0,-100.00,SSW,195,1.0,1.0,56,-99.99,,,-99.99,,2013-04-25 02:42:00,
2013-04-24 22:02:00,44.0,32.0,-100.00,SW,215,2.0,3.0,62,-99.99,,,-99.99,,2013-04-25 03:02:00,
2013-04-24 22:11:00,43.0,33.0,-100.00,SSW,205,1.0,3.0,67,-99.99,,,-99.99,,2013-04-25 03:11:00,
2013-04-24 22:22:00,43.0,34.0,-100.00,SSW,200,2.0,3.0,71,-99.99,,,-99.99,,2013-04-25 03:22:00,
2013-04-24 22:33:00,43.0,34.0,-100.00,SSW,200,2.0,3.0,71,-99.99,,,-99.99,,2013-04-25 03:33:00,
2013-04-24 22:42:00,43.0,35.0,-100.00,SSW,195,3.0,4.0,75,-99.99,,,-99.99,,2013-04-25 03:42:00,
2013-04-24 22:52:00,42.0,35.0,-100.00,SSW,205,3.0,4.0,78,-99.99,,,-99.99,,2013-04-25 03:52:00,
2013-04-24 23:03:00,42.0,35.0,-100.00,SSW,205,3.0,4.0,78,-99.99,,,-99.99,,2013-04-25 04:03:00,
2013-04-24 23:12:00,41.0,36.0,-100.00,SSW,205,2.0,3.0,80,-99.99,,,-99.99,,2013-04-25 04:12:00,
2013-04-24 23:23:00,41.0,36.0,-100.00,SSW,200,2.0,3.0,81,-99.99,,,-99.99,,2013-04-25 04:23:00,
2013-04-24 23:30:00,41.0,35.0,-100.00,SSW,200,3.0,4.0,81,-99.99,,,-99.99,,2013-04-25 04:30:00,
2013-04-24 23:32:00,41.0,36.0,-100.00,SSW,200,2.0,3.0,81,-99.99,,,-99.99,,2013-04-25 04:32:00,
2013-04-24 23:43:00,41.0,36.0,-100.00,SSW,195,3.0,3.0,81,-99.99,,,-99.99,,2013-04-25 04:43:00,
2013-04-24 23:52:00,41.0,35.0,-100.00,SSW,200,4.0,4.0,81,-99.99,,,-99.99,,2013-04-25 04:52:00,